createdAt,value
2022-12-31T00:02:14.936Z,2.45
2022-12-31T00:04:41.504Z,2.53
2022-12-31T00:07:07.951Z,2.00
2022-12-31T00:09:34.373Z,1.90
2022-12-31T00:12:00.805Z,1.98
2022-12-31T00:14:50.276Z,2.00
2022-12-31T00:17:16.717Z,2.42
2022-12-31T00:19:43.123Z,1.90
2022-12-31T00:22:09.941Z,1.50
2022-12-31T00:24:36.470Z,2.70
2022-12-31T00:27:03.143Z,1.90
2022-12-31T00:29:29.538Z,2.42
2022-12-31T00:31:56.115Z,3.22
2022-12-31T00:34:22.634Z,2.20
2022-12-31T00:36:49.066Z,2.47
2022-12-31T00:39:15.547Z,4.20
2022-12-31T00:41:43.884Z,3.70
2022-12-31T00:44:13.770Z,2.00
2022-12-31T00:49:06.022Z,1.90
2022-12-31T00:51:32.491Z,1.95
2022-12-31T00:53:59.090Z,1.80
2022-12-31T00:56:28.712Z,3.28
2022-12-31T00:58:55.710Z,1.70
2022-12-31T01:01:36.720Z,2.33
2022-12-31T01:04:14.484Z,1.35
2022-12-31T01:06:41.664Z,1.70
2022-12-31T01:09:09.537Z,1.55
2022-12-31T01:11:36.126Z,1.30
2022-12-31T01:14:15.024Z,1.90
2022-12-31T01:16:47.506Z,1.83
2022-12-31T01:19:20.891Z,1.42
2022-12-31T01:21:48.549Z,1.50
2022-12-31T01:24:15.928Z,1.30
2022-12-31T01:26:42.813Z,2.40
2022-12-31T01:29:10.444Z,1.10
2022-12-31T01:31:38.050Z,1.30
2022-12-31T01:34:05.652Z,1.40
2022-12-31T01:36:35.679Z,1.30
2022-12-31T01:39:05.573Z,1.02
2022-12-31T01:41:41.051Z,1.17
2022-12-31T01:44:13.771Z,1.58
2022-12-31T01:46:52.519Z,1.40
2022-12-31T01:49:28.404Z,1.00
2022-12-31T01:52:02.122Z,1.02
2022-12-31T01:54:32.212Z,1.38
2022-12-31T01:56:59.348Z,1.10
2022-12-31T01:59:28.665Z,1.10
2022-12-31T02:01:56.348Z,1.02
2022-12-31T02:04:25.174Z,0.90
2022-12-31T02:07:01.623Z,0.93
2022-12-31T02:09:28.889Z,0.90
2022-12-31T02:11:55.665Z,2.25
2022-12-31T02:14:26.323Z,1.15
2022-12-31T02:20:01.158Z,1.00
2022-12-31T02:23:05.383Z,0.75
2022-12-31T02:25:52.553Z,1.10
2022-12-31T02:28:22.398Z,0.85
2022-12-31T02:30:57.940Z,1.25
2022-12-31T02:33:34.392Z,1.83
2022-12-31T02:36:13.153Z,1.67
2022-12-31T02:38:43.636Z,1.38
2022-12-31T02:41:35.292Z,2.05
2022-12-31T02:44:02.481Z,1.73
2022-12-31T02:46:46.589Z,1.52
2022-12-31T02:49:51.169Z,1.65
2022-12-31T02:52:42.722Z,2.03
2022-12-31T02:55:13.473Z,1.42
2022-12-31T02:58:13.445Z,1.73
2022-12-31T03:01:08.944Z,1.90
2022-12-31T03:03:37.802Z,1.20
2022-12-31T03:06:07.503Z,1.20
2022-12-31T03:08:54.468Z,1.27
2022-12-31T03:11:39.787Z,0.90
2022-12-31T03:14:06.262Z,1.20
2022-12-31T03:16:32.767Z,1.90
2022-12-31T03:19:17.861Z,2.72
2022-12-31T03:22:02.888Z,1.25
2022-12-31T03:24:47.671Z,3.50
2022-12-31T03:27:14.088Z,0.95
2022-12-31T03:29:40.512Z,0.95
2022-12-31T03:32:06.986Z,1.88
2022-12-31T03:34:33.436Z,2.08
2022-12-31T03:37:00.145Z,2.15
2022-12-31T03:39:26.619Z,1.17
2022-12-31T03:41:53.080Z,1.00
2022-12-31T03:44:19.583Z,6.60
2022-12-31T03:46:45.976Z,1.08
2022-12-31T03:49:12.398Z,1.50
2022-12-31T03:51:38.785Z,1.13
2022-12-31T03:54:05.225Z,1.13
2022-12-31T03:56:31.614Z,0.90
2022-12-31T03:58:58.175Z,1.00
2022-12-31T04:01:25.379Z,1.40
2022-12-31T04:03:51.910Z,1.10
2022-12-31T04:06:18.433Z,1.23
2022-12-31T04:08:44.902Z,1.10
2022-12-31T04:11:14.741Z,3.33
2022-12-31T04:13:45.415Z,3.20
2022-12-31T04:16:11.893Z,2.92
2022-12-31T04:18:38.404Z,1.45
2022-12-31T04:21:05.795Z,2.15
2022-12-31T04:23:32.327Z,1.20
2022-12-31T04:25:58.821Z,1.70
2022-12-31T04:28:25.357Z,1.58
2022-12-31T04:30:51.979Z,1.10
2022-12-31T04:33:18.434Z,1.10
2022-12-31T04:35:44.868Z,1.15
2022-12-31T04:38:11.505Z,0.90
2022-12-31T04:40:57.934Z,1.38
2022-12-31T04:43:24.421Z,2.30
2022-12-31T04:45:50.895Z,0.77
2022-12-31T04:48:17.370Z,0.80
2022-12-31T04:50:43.840Z,3.67
2022-12-31T04:53:10.230Z,5.80
2022-12-31T04:55:36.793Z,1.50
2022-12-31T04:58:03.518Z,1.30
2022-12-31T05:00:30.115Z,1.13
2022-12-31T05:02:56.663Z,0.82
2022-12-31T05:05:23.078Z,1.25
2022-12-31T05:07:49.747Z,1.50
2022-12-31T05:10:16.484Z,0.88
2022-12-31T05:12:42.876Z,1.10
2022-12-31T05:15:09.501Z,2.00
2022-12-31T05:17:35.891Z,1.13
2022-12-31T05:20:02.333Z,1.20
2022-12-31T05:22:28.881Z,0.82
2022-12-31T05:24:56.719Z,1.20
2022-12-31T05:27:24.179Z,1.02
2022-12-31T05:29:51.096Z,0.98
2022-12-31T05:32:17.730Z,1.42
2022-12-31T05:34:44.683Z,0.98
2022-12-31T05:37:12.103Z,0.90
2022-12-31T05:39:38.551Z,0.95
2022-12-31T05:42:05.160Z,1.30
2022-12-31T05:44:31.597Z,0.90
2022-12-31T05:46:58.089Z,0.90
2022-12-31T05:49:24.504Z,1.05
2022-12-31T05:51:51.212Z,1.02
2022-12-31T05:54:17.853Z,1.40
2022-12-31T05:56:44.699Z,1.02
2022-12-31T05:59:11.115Z,9.00
2022-12-31T06:01:37.714Z,2.42
2022-12-31T06:04:04.557Z,1.27
2022-12-31T06:06:31.377Z,1.02
2022-12-31T06:08:58.119Z,1.70
2022-12-31T06:11:24.919Z,1.30
2022-12-31T06:13:51.671Z,1.20
2022-12-31T06:16:18.319Z,1.27
2022-12-31T06:18:47.662Z,0.65
2022-12-31T06:21:15.806Z,0.80
2022-12-31T06:23:42.488Z,1.00
2022-12-31T06:26:09.510Z,0.98
2022-12-31T06:28:36.226Z,0.93
2022-12-31T06:31:05.084Z,1.00
2022-12-31T06:33:31.809Z,1.23
2022-12-31T06:36:00.436Z,1.02
2022-12-31T06:38:28.807Z,1.10
2022-12-31T06:40:55.877Z,0.93
2022-12-31T06:43:23.422Z,1.20
2022-12-31T06:45:49.900Z,0.68
2022-12-31T06:48:16.429Z,1.08
2022-12-31T06:50:43.064Z,1.15
2022-12-31T06:53:09.581Z,0.98
2022-12-31T06:55:36.316Z,1.00
2022-12-31T06:58:03.029Z,1.23
2022-12-31T07:00:29.844Z,1.10
2022-12-31T07:03:09.816Z,0.85
2022-12-31T07:05:46.898Z,1.17
2022-12-31T07:08:37.873Z,1.10
2022-12-31T07:11:12.361Z,1.02
2022-12-31T07:14:10.630Z,1.10
2022-12-31T07:16:56.192Z,1.40
2022-12-31T07:19:33.617Z,1.67
2022-12-31T07:22:00.438Z,1.17
2022-12-31T07:24:29.700Z,1.20
2022-12-31T07:27:31.444Z,1.10
2022-12-31T07:30:10.166Z,1.20
2022-12-31T07:33:12.167Z,2.13
2022-12-31T07:35:41.575Z,1.70
2022-12-31T07:38:17.459Z,1.05
2022-12-31T07:40:43.870Z,0.90
2022-12-31T07:43:32.588Z,1.20
2022-12-31T07:46:11.683Z,1.20
2022-12-31T07:48:38.653Z,1.30
2022-12-31T07:51:05.507Z,0.90
2022-12-31T07:53:32.156Z,1.00
2022-12-31T07:56:01.480Z,1.00
2022-12-31T07:58:36.959Z,0.88
2022-12-31T08:01:04.130Z,1.50
2022-12-31T08:03:41.914Z,1.80
2022-12-31T08:06:15.983Z,1.90
2022-12-31T08:09:17.781Z,1.00
2022-12-31T08:11:58.079Z,1.65
2022-12-31T08:14:25.087Z,2.53
2022-12-31T08:16:51.943Z,1.73
2022-12-31T08:19:25.904Z,1.13
2022-12-31T08:22:03.477Z,1.05
2022-12-31T08:24:30.065Z,1.42
2022-12-31T08:27:12.848Z,1.00
2022-12-31T08:30:08.279Z,1.38
2022-12-31T08:33:10.374Z,1.10
2022-12-31T08:35:55.732Z,1.40
2022-12-31T08:38:46.246Z,0.75
2022-12-31T08:41:18.150Z,1.80
2022-12-31T08:44:05.976Z,1.15
2022-12-31T08:46:44.839Z,1.67
2022-12-31T08:49:11.819Z,0.90
2022-12-31T08:51:38.621Z,1.25
2022-12-31T08:54:05.503Z,1.00
2022-12-31T08:56:37.584Z,1.08
2022-12-31T08:59:21.624Z,1.20
2022-12-31T09:02:01.086Z,1.55
2022-12-31T09:04:46.365Z,1.20
2022-12-31T09:07:14.023Z,1.35
2022-12-31T09:09:59.253Z,1.08
2022-12-31T09:12:38.097Z,1.08
2022-12-31T09:15:21.177Z,1.55
2022-12-31T09:17:50.480Z,1.10
2022-12-31T09:20:41.901Z,1.25
2022-12-31T09:23:10.606Z,1.20
2022-12-31T09:25:47.007Z,1.20
2022-12-31T09:28:16.048Z,1.30
2022-12-31T09:30:53.813Z,1.25
2022-12-31T09:33:39.166Z,0.80
2022-12-31T09:36:08.343Z,0.90
2022-12-31T09:38:53.005Z,1.45
2022-12-31T09:41:54.780Z,1.20
2022-12-31T09:44:56.688Z,1.33
2022-12-31T09:47:51.284Z,1.98
2022-12-31T09:50:31.279Z,1.30
2022-12-31T09:53:19.571Z,1.50
2022-12-31T09:55:53.894Z,1.50
2022-12-31T09:58:45.758Z,1.77
2022-12-31T10:01:21.641Z,1.83
2022-12-31T10:04:15.744Z,1.52
2022-12-31T10:07:02.273Z,1.30
2022-12-31T10:10:07.543Z,1.10
2022-12-31T10:12:43.045Z,1.17
2022-12-31T10:15:43.742Z,0.90
2022-12-31T10:18:35.269Z,0.90
2022-12-31T10:21:17.129Z,1.00
2022-12-31T10:24:21.368Z,0.90
2022-12-31T10:27:16.421Z,1.20
2022-12-31T10:29:59.163Z,1.05
2022-12-31T10:33:00.640Z,1.02
2022-12-31T10:35:39.280Z,1.58
2022-12-31T10:38:12.231Z,1.00
2022-12-31T10:41:15.053Z,0.75
2022-12-31T10:44:11.629Z,1.20
2022-12-31T10:46:54.420Z,1.10
2022-12-31T10:49:39.808Z,1.20
2022-12-31T10:52:15.450Z,0.90
2022-12-31T10:55:05.368Z,1.00
2022-12-31T10:57:39.467Z,0.90
2022-12-31T11:00:15.424Z,1.00
2022-12-31T11:03:03.328Z,1.25
2022-12-31T11:05:51.388Z,1.20
2022-12-31T11:08:45.182Z,0.80
2022-12-31T11:11:44.925Z,1.20
2022-12-31T11:14:42.658Z,0.70
2022-12-31T11:17:28.512Z,0.80
2022-12-31T11:20:20.868Z,1.00
2022-12-31T11:23:21.123Z,1.08
2022-12-31T11:26:19.499Z,1.10
2022-12-31T11:28:58.145Z,1.30
2022-12-31T11:31:47.356Z,0.90
2022-12-31T11:34:37.998Z,0.90
2022-12-31T11:37:20.547Z,0.90
2022-12-31T11:40:02.260Z,0.75
2022-12-31T11:42:56.792Z,0.93
2022-12-31T11:45:50.366Z,1.45
2022-12-31T11:48:33.227Z,1.30
2022-12-31T11:51:21.631Z,1.60
2022-12-31T11:54:21.323Z,1.23
2022-12-31T11:57:01.056Z,1.33
2022-12-31T11:59:35.746Z,1.10
2022-12-31T12:02:29.111Z,1.42
2022-12-31T12:05:06.556Z,1.15
2022-12-31T12:07:40.233Z,1.25
2022-12-31T12:10:31.799Z,1.52
2022-12-31T12:13:00.859Z,1.10
2022-12-31T12:15:32.339Z,1.40
2022-12-31T12:18:06.257Z,1.55
2022-12-31T12:20:36.723Z,1.27
2022-12-31T12:25:43.116Z,1.40
2022-12-31T12:28:19.011Z,1.20
2022-12-31T12:30:52.816Z,1.30
2022-12-31T12:33:20.583Z,1.40
2022-12-31T12:35:48.175Z,1.60
2022-12-31T12:38:21.596Z,1.45
2022-12-31T12:41:01.025Z,1.30
2022-12-31T12:43:31.525Z,1.55
2022-12-31T12:48:47.045Z,1.00
2022-12-31T12:51:37.445Z,1.30
2022-12-31T12:54:31.228Z,0.90
2022-12-31T12:57:19.874Z,1.02
2022-12-31T13:00:25.051Z,1.23
2022-12-31T13:03:10.130Z,1.10
2022-12-31T13:05:55.175Z,1.20
2022-12-31T13:08:52.025Z,1.67
2022-12-31T13:11:28.276Z,1.20
2022-12-31T13:14:16.607Z,1.30
2022-12-31T13:17:05.201Z,1.30
2022-12-31T13:19:46.159Z,1.20
2022-12-31T13:22:32.579Z,1.77
2022-12-31T13:25:22.930Z,0.93
2022-12-31T13:27:52.194Z,1.10
2022-12-31T13:30:23.318Z,1.10
2022-12-31T13:33:03.056Z,0.82
2022-12-31T13:35:37.930Z,1.10
2022-12-31T13:38:12.931Z,1.10
2022-12-31T13:40:57.719Z,1.27
2022-12-31T13:43:54.807Z,1.48
2022-12-31T13:46:33.483Z,1.15
2022-12-31T13:49:04.239Z,1.60
2022-12-31T13:51:42.876Z,1.15
2022-12-31T13:54:15.520Z,1.20
2022-12-31T13:56:45.003Z,1.20
2022-12-31T13:59:22.755Z,1.50
2022-12-31T14:02:01.398Z,1.15
2022-12-31T14:04:38.079Z,1.40
2022-12-31T14:07:15.953Z,1.17
2022-12-31T14:09:42.763Z,1.17
2022-12-31T14:12:35.606Z,1.55
2022-12-31T14:15:29.955Z,1.77
2022-12-31T14:18:13.353Z,3.85
2022-12-31T14:20:44.769Z,10.10
2022-12-31T14:23:22.578Z,6.75
2022-12-31T14:25:52.189Z,5.18
2022-12-31T14:28:25.582Z,1.60
2022-12-31T14:30:58.989Z,1.55
2022-12-31T14:33:37.609Z,2.00
2022-12-31T14:36:21.668Z,1.35
2022-12-31T14:39:33.379Z,1.40
2022-12-31T14:42:09.826Z,1.73
2022-12-31T14:44:49.606Z,1.23
2022-12-31T14:47:30.797Z,1.95
2022-12-31T14:50:11.211Z,1.30
2022-12-31T14:55:43.425Z,1.70
2022-12-31T14:58:29.874Z,1.40
2022-12-31T15:01:00.956Z,1.60
2022-12-31T15:03:30.906Z,1.88
2022-12-31T15:06:11.078Z,1.70
2022-12-31T15:08:49.729Z,1.50
2022-12-31T15:11:46.279Z,1.80
2022-12-31T15:14:22.191Z,2.30
2022-12-31T15:17:10.538Z,2.88
2022-12-31T15:19:58.980Z,2.50
2022-12-31T15:22:37.684Z,2.00
2022-12-31T15:25:21.205Z,1.73
2022-12-31T15:27:48.579Z,2.00
2022-12-31T15:30:34.043Z,1.90
2022-12-31T15:33:10.226Z,1.67
2022-12-31T15:35:54.285Z,2.30
2022-12-31T15:38:36.442Z,2.00
2022-12-31T15:42:18.819Z,2.08
2022-12-31T15:44:52.276Z,2.78
2022-12-31T15:47:37.015Z,2.13
2022-12-31T15:50:25.785Z,2.30
2022-12-31T15:52:58.320Z,2.33
2022-12-31T15:55:43.005Z,2.60
2022-12-31T15:58:17.090Z,3.30
2022-12-31T16:00:57.883Z,5.38
2022-12-31T16:03:30.459Z,6.05
2022-12-31T16:06:10.755Z,7.43
2022-12-31T16:08:38.624Z,10.75
2022-12-31T16:11:09.338Z,6.03
2022-12-31T16:13:42.115Z,6.70
2022-12-31T16:16:21.108Z,7.03
2022-12-31T16:18:50.191Z,8.20
2022-12-31T16:21:34.677Z,9.07
2022-12-31T16:24:22.388Z,7.45
2022-12-31T16:26:53.577Z,20.33
2022-12-31T16:29:23.197Z,11.15
2022-12-31T16:31:53.124Z,11.10
2022-12-31T16:34:24.623Z,11.20
2022-12-31T16:37:02.977Z,12.52
2022-12-31T16:39:32.598Z,17.35
2022-12-31T16:42:18.690Z,14.87
2022-12-31T16:44:49.823Z,13.70
2022-12-31T16:47:34.047Z,16.20
2022-12-31T16:50:20.407Z,10.30
2022-12-31T16:52:50.492Z,11.77
2022-12-31T16:55:24.144Z,10.15
2022-12-31T16:58:11.278Z,9.18
2022-12-31T17:00:38.695Z,8.70
2022-12-31T17:03:11.166Z,9.32
2022-12-31T17:06:07.544Z,16.67
2022-12-31T17:08:42.275Z,10.52
2022-12-31T17:11:24.251Z,13.25
2022-12-31T17:13:57.589Z,10.48
2022-12-31T17:16:25.524Z,9.68
2022-12-31T17:18:52.442Z,12.63
2022-12-31T17:21:21.128Z,13.90
2022-12-31T17:23:55.135Z,11.23
2022-12-31T17:26:30.695Z,9.50
2022-12-31T17:28:59.136Z,11.50
2022-12-31T17:31:37.804Z,11.15
2022-12-31T17:34:41.583Z,12.50
2022-12-31T17:37:12.927Z,7.20
2022-12-31T17:39:54.615Z,7.97
2022-12-31T17:42:29.982Z,6.35
2022-12-31T17:45:00.946Z,8.45
2022-12-31T17:47:36.549Z,8.32
2022-12-31T17:50:20.684Z,15.10
2022-12-31T17:52:47.819Z,9.32
2022-12-31T17:55:14.752Z,7.93
2022-12-31T17:57:57.176Z,8.45
2022-12-31T18:00:26.914Z,8.30
2022-12-31T18:02:53.990Z,6.53
2022-12-31T18:05:28.062Z,8.20
2022-12-31T18:08:00.429Z,7.93
2022-12-31T18:10:33.597Z,7.20
2022-12-31T18:13:14.453Z,9.20
2022-12-31T18:15:41.496Z,11.27
2022-12-31T18:18:32.285Z,14.15
2022-12-31T18:21:01.777Z,12.25
2022-12-31T18:23:34.922Z,15.98
2022-12-31T18:26:01.486Z,16.73
2022-12-31T18:28:28.164Z,13.27
2022-12-31T18:30:55.000Z,17.40
2022-12-31T18:33:25.847Z,18.52
2022-12-31T18:36:08.933Z,23.33
2022-12-31T18:38:36.433Z,31.50
2022-12-31T18:41:04.066Z,28.45
2022-12-31T18:43:30.745Z,25.60
2022-12-31T18:46:00.340Z,26.03
2022-12-31T18:48:27.017Z,32.90
2022-12-31T18:50:53.809Z,34.15
2022-12-31T18:53:22.938Z,32.83
2022-12-31T18:58:59.802Z,28.87
2022-12-31T19:01:35.402Z,24.05
2022-12-31T19:04:10.926Z,26.10
2022-12-31T19:06:37.503Z,37.47
2022-12-31T19:09:13.186Z,32.42
2022-12-31T19:11:54.482Z,23.63
2022-12-31T19:14:27.108Z,27.73
2022-12-31T19:16:57.370Z,24.27
2022-12-31T19:19:26.381Z,20.08
2022-12-31T19:21:53.056Z,28.92
2022-12-31T19:24:44.059Z,13.13
2022-12-31T19:27:14.952Z,18.27
2022-12-31T19:32:18.121Z,10.48
2022-12-31T19:34:44.913Z,9.23
2022-12-31T19:37:15.453Z,9.02
2022-12-31T19:42:15.438Z,10.45
2022-12-31T19:44:44.431Z,11.80
2022-12-31T19:47:15.900Z,12.60
2022-12-31T19:49:43.592Z,9.75
2022-12-31T19:52:16.771Z,16.25
2022-12-31T19:54:43.784Z,19.40
2022-12-31T19:57:13.344Z,14.05
2022-12-31T19:59:45.245Z,21.15
2022-12-31T20:05:23.659Z,12.48
2022-12-31T20:08:14.542Z,13.95
2022-12-31T20:10:41.383Z,13.77
2022-12-31T20:13:10.537Z,14.30
2022-12-31T20:15:47.736Z,14.57
2022-12-31T20:18:18.655Z,17.83
2022-12-31T20:20:56.843Z,15.13
2022-12-31T20:23:34.855Z,16.13
2022-12-31T20:26:04.354Z,15.55
2022-12-31T20:28:33.131Z,13.20
2022-12-31T20:31:08.527Z,11.93
2022-12-31T20:33:36.296Z,11.15
2022-12-31T20:36:12.082Z,11.75
2022-12-31T20:38:39.479Z,12.07
2022-12-31T20:41:11.083Z,11.73
2022-12-31T20:43:47.151Z,9.65
2022-12-31T20:46:31.424Z,9.40
2022-12-31T20:49:04.666Z,10.07
2022-12-31T20:51:34.886Z,10.38
2022-12-31T20:54:10.171Z,10.25
2022-12-31T20:56:45.872Z,27.52
2022-12-31T20:59:16.246Z,24.90
2022-12-31T21:02:19.948Z,17.75
2022-12-31T21:04:39.324Z,15.43
2022-12-31T21:07:06.607Z,28.50
2022-12-31T21:09:36.950Z,13.13
2022-12-31T21:12:37.423Z,9.73
2022-12-31T21:15:04.918Z,9.45
2022-12-31T21:17:35.346Z,10.35
2022-12-31T21:20:05.522Z,10.32
2022-12-31T21:22:41.209Z,9.10
2022-12-31T21:25:11.413Z,9.48
2022-12-31T21:27:38.685Z,10.68
2022-12-31T21:30:19.880Z,12.07
2022-12-31T21:32:51.692Z,18.13
2022-12-31T21:38:07.655Z,12.77
2022-12-31T21:40:39.905Z,10.50
2022-12-31T21:43:09.244Z,9.68
2022-12-31T21:45:38.967Z,10.05
2022-12-31T21:48:22.500Z,16.60
2022-12-31T21:50:56.760Z,15.27
2022-12-31T21:53:31.912Z,17.58
2022-12-31T21:56:10.157Z,13.18
2022-12-31T21:58:54.265Z,9.30
2022-12-31T22:01:50.359Z,9.18
2022-12-31T22:05:00.388Z,8.57
2022-12-31T22:07:12.187Z,7.72
2022-12-31T22:09:40.953Z,8.43
2022-12-31T22:12:07.853Z,8.65
2022-12-31T22:14:34.677Z,9.70
2022-12-31T22:17:07.153Z,12.82
2022-12-31T22:20:00.826Z,15.00
2022-12-31T22:22:28.922Z,17.05
2022-12-31T22:24:59.261Z,12.02
2022-12-31T22:27:36.834Z,11.50
2022-12-31T22:30:09.984Z,17.38
2022-12-31T22:32:37.182Z,16.60
2022-12-31T22:35:15.759Z,16.25
2022-12-31T22:37:59.025Z,15.80
2022-12-31T22:40:29.413Z,13.95
2022-12-31T22:43:47.780Z,18.10
2022-12-31T22:46:42.816Z,13.93
2022-12-31T22:52:43.025Z,46.85
2022-12-31T23:11:01.552Z,423.10
2022-12-31T23:15:29.592Z,272.92
2022-12-31T23:21:53.197Z,243.38
2022-12-31T23:25:26.853Z,220.82
2022-12-31T23:28:31.731Z,195.43
2022-12-31T23:31:20.047Z,163.88
2022-12-31T23:34:34.404Z,142.77
2022-12-31T23:37:06.894Z,135.15
2022-12-31T23:39:36.671Z,125.20
2022-12-31T23:42:07.347Z,124.00
2022-12-31T23:44:49.159Z,123.57
2022-12-31T23:47:16.521Z,116.43
2022-12-31T23:49:43.804Z,116.40
2022-12-31T23:54:41.460Z,118.43
2022-12-31T23:57:26.739Z,136.75
